ACA112 EGKK-UUEE
Flight info
| Callsign | ACA112 |
|---|---|
| Flight time | 5h 39m |
| Altitude | 37000 |
| Route | FRANE M604 PAAVO Q295 SOMVA DCT MAVAS DCT DOSUR DCT NISLO DCT ORVIX N165 SORES M864 IGORO/K0889F370 M864 DIPOP DIPOP3F |
| Aircraft | B77W/H-SDE1E2E3FGHIJ2J3J4J5M1RWXY/LB1D1 |
Departure
| Time | 2026-05-08 01:21 |
|---|---|
| Airport | London Gatwick Airport (EGKK) |
Arrival
| Time | 2026-05-08 07:00 |
|---|---|
| Airport | Sheremetyevo International Airport (UUEE) |
| Time | Latitude | Longitude | Altitude | Speed | Heading |
|---|---|---|---|---|---|
| 2026-05-08 00:55 | 51.15550 | -0.17814 | 210 ft | 0 kts | 343° |
| 2026-05-08 01:15 | 51.15548 | -0.17813 | 210 ft | 3 kts | 339° |
| 2026-05-08 01:15 | 51.15547 | -0.17814 | 219 ft | 4 kts | 343° |
| 2026-05-08 01:16 | 51.15525 | -0.17807 | 213 ft | 4 kts | 2° |
| 2026-05-08 01:16 | 51.15505 | -0.17813 | 215 ft | 4 kts | 36° |
| 2026-05-08 01:16 | 51.15493 | -0.17836 | 224 ft | 4 kts | 76° |
| 2026-05-08 01:16 | 51.15488 | -0.17877 | 220 ft | 4 kts | 80° |
| 2026-05-08 01:17 | 51.15486 | -0.17895 | 216 ft | 1 kts | 77° |
| 2026-05-08 01:17 | 51.15486 | -0.17896 | 216 ft | 0 kts | 77° |
| 2026-05-08 01:18 | 51.15487 | -0.17890 | 218 ft | 3 kts | 77° |
| 2026-05-08 01:19 | 51.15498 | -0.17809 | 217 ft | 12 kts | 77° |
| 2026-05-08 01:19 | 51.15524 | -0.17629 | 215 ft | 20 kts | 77° |
| 2026-05-08 01:19 | 51.15502 | -0.17432 | 217 ft | 20 kts | 159° |
| 2026-05-08 01:19 | 51.15365 | -0.17376 | 219 ft | 20 kts | 166° |
| 2026-05-08 01:20 | 51.15234 | -0.17304 | 215 ft | 20 kts | 146° |
| 2026-05-08 01:20 | 51.15127 | -0.17175 | 221 ft | 8 kts | 140° |
| 2026-05-08 01:20 | 51.15077 | -0.17184 | 221 ft | 9 kts | 236° |
| 2026-05-08 01:20 | 51.15058 | -0.17273 | 216 ft | 9 kts | 257° |
| 2026-05-08 01:21 | 51.15003 | -0.17666 | 218 ft | 82 kts | 257° |
| 2026-05-08 01:21 | 51.14812 | -0.19068 | 218 ft | 173 kts | 258° |
| 2026-05-08 01:21 | 51.14530 | -0.21165 | 601 ft | 207 kts | 258° |
| 2026-05-08 01:21 | 51.14217 | -0.23506 | 1401 ft | 225 kts | 256° |
| 2026-05-08 01:22 | 51.13888 | -0.26019 | 2240 ft | 238 kts | 256° |
| 2026-05-08 01:22 | 51.13593 | -0.28608 | 3163 ft | 235 kts | 263° |
| 2026-05-08 01:22 | 51.13924 | -0.31144 | 3824 ft | 241 kts | 301° |
| 2026-05-08 01:22 | 51.15176 | -0.32908 | 4002 ft | 247 kts | 338° |
| 2026-05-08 01:23 | 51.16843 | -0.33157 | 4009 ft | 245 kts | 12° |
| 2026-05-08 01:23 | 51.18380 | -0.32075 | 4004 ft | 240 kts | 39° |
| 2026-05-08 01:23 | 51.19438 | -0.30082 | 3993 ft | 234 kts | 66° |
| 2026-05-08 01:23 | 51.19846 | -0.27596 | 3976 ft | 233 kts | 84° |
| 2026-05-08 01:24 | 51.20031 | -0.25020 | 3992 ft | 234 kts | 85° |
| 2026-05-08 01:24 | 51.20226 | -0.22452 | 4100 ft | 237 kts | 84° |
| 2026-05-08 01:24 | 51.20444 | -0.19856 | 4796 ft | 237 kts | 82° |
| 2026-05-08 01:24 | 51.20746 | -0.17259 | 5009 ft | 238 kts | 79° |
| 2026-05-08 01:25 | 51.21078 | -0.14671 | 5451 ft | 238 kts | 79° |
| 2026-05-08 01:25 | 51.21419 | -0.12069 | 5955 ft | 240 kts | 78° |
| 2026-05-08 01:25 | 51.21764 | -0.09443 | 5993 ft | 244 kts | 78° |
| 2026-05-08 01:25 | 51.22119 | -0.06826 | 6005 ft | 242 kts | 73° |
| 2026-05-08 01:26 | 51.22937 | -0.04519 | 6383 ft | 242 kts | 51° |
| 2026-05-08 01:26 | 51.24041 | -0.02312 | 6815 ft | 264 kts | 52° |
| 2026-05-08 01:26 | 51.25199 | 0.00060 | 7497 ft | 276 kts | 52° |
| 2026-05-08 01:26 | 51.26393 | 0.02540 | 8253 ft | 285 kts | 51° |
| 2026-05-08 01:27 | 51.27201 | 0.04231 | 8776 ft | 290 kts | 51° |
| 2026-05-08 01:27 | 51.28846 | 0.07700 | 9871 ft | 300 kts | 51° |
| 2026-05-08 01:27 | 51.30123 | 0.10412 | 10565 ft | 310 kts | 51° |
| 2026-05-08 01:27 | 51.31002 | 0.12282 | 10787 ft | 328 kts | 52° |
| 2026-05-08 01:28 | 51.32924 | 0.16389 | 11091 ft | 365 kts | 52° |
| 2026-05-08 01:28 | 51.34493 | 0.19755 | 11557 ft | 384 kts | 52° |
| 2026-05-08 01:28 | 51.35561 | 0.22055 | 12110 ft | 390 kts | 53° |
| 2026-05-08 01:28 | 51.37193 | 0.25579 | 13094 ft | 396 kts | 53° |
| 2026-05-08 01:29 | 51.38840 | 0.29136 | 14125 ft | 400 kts | 53° |
| 2026-05-08 01:29 | 51.40511 | 0.32754 | 15029 ft | 405 kts | 53° |
| 2026-05-08 01:29 | 51.42195 | 0.36402 | 15902 ft | 411 kts | 53° |
| 2026-05-08 01:29 | 51.43915 | 0.40132 | 16798 ft | 417 kts | 54° |
| 2026-05-08 01:30 | 51.45634 | 0.43866 | 17653 ft | 422 kts | 54° |
| 2026-05-08 01:30 | 51.47389 | 0.47683 | 18525 ft | 428 kts | 54° |
| 2026-05-08 01:30 | 51.49166 | 0.51551 | 19301 ft | 433 kts | 54° |
| 2026-05-08 01:30 | 51.50963 | 0.55471 | 20073 ft | 437 kts | 54° |
| 2026-05-08 01:31 | 51.52779 | 0.59435 | 20830 ft | 442 kts | 54° |
| 2026-05-08 01:31 | 51.54610 | 0.63439 | 21602 ft | 446 kts | 54° |
| 2026-05-08 01:31 | 51.56627 | 0.67179 | 22172 ft | 452 kts | 41° |
| 2026-05-08 01:31 | 51.59218 | 0.70100 | 22856 ft | 456 kts | 27° |
| 2026-05-08 01:32 | 51.62136 | 0.71998 | 23614 ft | 457 kts | 14° |
| 2026-05-08 01:32 | 51.65264 | 0.73102 | 24231 ft | 459 kts | 10° |
| 2026-05-08 01:32 | 51.68413 | 0.74147 | 24790 ft | 464 kts | 11° |
| 2026-05-08 01:32 | 51.71554 | 0.75277 | 25362 ft | 468 kts | 12° |
| 2026-05-08 01:33 | 51.74741 | 0.76489 | 25928 ft | 472 kts | 12° |
| 2026-05-08 01:33 | 51.77943 | 0.77773 | 26489 ft | 476 kts | 15° |
| 2026-05-08 01:33 | 51.81056 | 0.79681 | 27001 ft | 481 kts | 25° |
| 2026-05-08 01:33 | 51.83978 | 0.82366 | 27553 ft | 485 kts | 33° |
| 2026-05-08 01:34 | 51.86633 | 0.85784 | 28035 ft | 490 kts | 45° |
| 2026-05-08 01:34 | 51.88732 | 0.90044 | 28494 ft | 493 kts | 59° |
| 2026-05-08 01:34 | 51.90159 | 0.95117 | 28955 ft | 495 kts | 72° |
| 2026-05-08 01:34 | 51.91132 | 1.00480 | 29406 ft | 497 kts | 75° |
| 2026-05-08 01:35 | 51.92109 | 1.05879 | 29781 ft | 501 kts | 73° |
| 2026-05-08 01:35 | 51.93203 | 1.11297 | 30157 ft | 505 kts | 71° |
| 2026-05-08 01:35 | 51.94392 | 1.16579 | 30584 ft | 505 kts | 70° |
| 2026-05-08 01:35 | 51.95675 | 1.21870 | 31093 ft | 503 kts | 69° |
| 2026-05-08 01:36 | 51.97000 | 1.27116 | 31598 ft | 501 kts | 68° |
| 2026-05-08 01:36 | 51.98338 | 1.32336 | 32061 ft | 500 kts | 68° |
| 2026-05-08 01:36 | 51.99662 | 1.37497 | 32487 ft | 500 kts | 68° |
| 2026-05-08 01:36 | 52.00989 | 1.42709 | 32917 ft | 499 kts | 68° |
| 2026-05-08 01:37 | 52.02309 | 1.47929 | 33364 ft | 499 kts | 68° |
| 2026-05-08 01:37 | 52.03621 | 1.53160 | 33797 ft | 498 kts | 68° |
| 2026-05-08 01:37 | 52.04924 | 1.58381 | 34199 ft | 497 kts | 68° |
| 2026-05-08 01:37 | 52.06205 | 1.63536 | 34499 ft | 498 kts | 68° |
| 2026-05-08 01:38 | 52.07502 | 1.68767 | 34784 ft | 498 kts | 68° |
| 2026-05-08 01:38 | 52.08799 | 1.74010 | 35085 ft | 498 kts | 68° |
| 2026-05-08 01:38 | 52.10093 | 1.79251 | 35393 ft | 499 kts | 68° |
| 2026-05-08 01:38 | 52.11388 | 1.84506 | 35669 ft | 499 kts | 69° |
| 2026-05-08 01:39 | 52.12662 | 1.89689 | 35956 ft | 499 kts | 69° |
| 2026-05-08 01:39 | 52.13952 | 1.94946 | 36243 ft | 499 kts | 69° |
| 2026-05-08 01:39 | 52.15243 | 2.00219 | 36530 ft | 500 kts | 69° |
| 2026-05-08 01:39 | 52.16530 | 2.05494 | 36799 ft | 500 kts | 69° |
| 2026-05-08 01:40 | 52.17800 | 2.10706 | 37020 ft | 501 kts | 69° |
| 2026-05-08 01:40 | 52.20382 | 2.21347 | 37105 ft | 506 kts | 69° |
| 2026-05-08 01:41 | 52.22944 | 2.31956 | 37094 ft | 500 kts | 69° |
| 2026-05-08 01:41 | 52.25488 | 2.42546 | 37099 ft | 498 kts | 69° |
| 2026-05-08 01:42 | 52.27989 | 2.53004 | 37105 ft | 497 kts | 69° |
| 2026-05-08 01:42 | 52.30501 | 2.63577 | 37102 ft | 497 kts | 70° |
| 2026-05-08 01:43 | 52.32541 | 2.74329 | 37115 ft | 498 kts | 75° |
| 2026-05-08 01:43 | 52.34417 | 2.85263 | 37109 ft | 499 kts | 75° |
| 2026-05-08 01:44 | 52.36328 | 2.96233 | 37107 ft | 501 kts | 74° |
| 2026-05-08 01:44 | 52.38246 | 3.07166 | 37106 ft | 502 kts | 74° |
| 2026-05-08 01:45 | 52.40849 | 3.17710 | 37106 ft | 502 kts | 62° |
| 2026-05-08 01:45 | 52.44610 | 3.27387 | 37101 ft | 502 kts | 53° |
| 2026-05-08 01:46 | 52.48833 | 3.36529 | 37098 ft | 502 kts | 52° |
| 2026-05-08 01:46 | 52.53049 | 3.45618 | 37099 ft | 502 kts | 52° |
| 2026-05-08 01:47 | 52.57243 | 3.54803 | 37099 ft | 501 kts | 53° |
| 2026-05-08 01:47 | 52.61406 | 3.64024 | 37104 ft | 501 kts | 53° |
| 2026-05-08 01:48 | 52.67594 | 3.77816 | 37110 ft | 500 kts | 53° |
| 2026-05-08 01:48 | 52.71724 | 3.87056 | 37110 ft | 499 kts | 53° |
| 2026-05-08 01:49 | 52.75820 | 3.96250 | 37115 ft | 499 kts | 53° |
| 2026-05-08 01:49 | 52.79941 | 4.05532 | 37115 ft | 499 kts | 53° |
| 2026-05-08 01:50 | 52.84017 | 4.14748 | 37112 ft | 499 kts | 53° |
| 2026-05-08 01:50 | 52.88116 | 4.24049 | 37112 ft | 499 kts | 53° |
| 2026-05-08 01:51 | 52.92192 | 4.33331 | 37099 ft | 499 kts | 53° |
| 2026-05-08 01:51 | 52.96281 | 4.42679 | 37106 ft | 499 kts | 54° |
| 2026-05-08 01:52 | 53.00331 | 4.51971 | 37112 ft | 499 kts | 54° |
| 2026-05-08 01:52 | 53.04409 | 4.61362 | 37111 ft | 499 kts | 54° |
| 2026-05-08 01:53 | 53.08446 | 4.70693 | 37105 ft | 499 kts | 54° |
| 2026-05-08 01:53 | 53.12500 | 4.80097 | 37108 ft | 499 kts | 54° |
| 2026-05-08 01:54 | 53.16519 | 4.89454 | 37105 ft | 498 kts | 54° |
| 2026-05-08 01:54 | 53.20550 | 4.98875 | 37117 ft | 498 kts | 54° |
| 2026-05-08 01:55 | 53.24548 | 5.08254 | 37129 ft | 498 kts | 54° |
| 2026-05-08 01:55 | 53.28556 | 5.17691 | 37131 ft | 497 kts | 54° |
| 2026-05-08 01:56 | 53.32565 | 5.27165 | 37124 ft | 497 kts | 55° |
| 2026-05-08 01:56 | 53.36535 | 5.36582 | 37127 ft | 497 kts | 55° |
| 2026-05-08 01:57 | 53.40509 | 5.46046 | 37136 ft | 496 kts | 55° |
| 2026-05-08 01:57 | 53.44460 | 5.55489 | 37135 ft | 496 kts | 55° |
| 2026-05-08 01:58 | 53.48423 | 5.64996 | 37134 ft | 496 kts | 55° |
| 2026-05-08 01:58 | 53.52382 | 5.74529 | 37119 ft | 496 kts | 55° |
| 2026-05-08 01:59 | 53.56302 | 5.84004 | 37126 ft | 495 kts | 55° |
| 2026-05-08 01:59 | 53.60241 | 5.93563 | 37126 ft | 495 kts | 56° |
| 2026-05-08 02:00 | 53.64149 | 6.03081 | 37130 ft | 495 kts | 56° |
| 2026-05-08 02:00 | 53.68040 | 6.12595 | 37129 ft | 495 kts | 56° |
| 2026-05-08 02:01 | 53.71943 | 6.22172 | 37135 ft | 494 kts | 56° |
| 2026-05-08 02:01 | 53.75835 | 6.31761 | 37141 ft | 494 kts | 56° |
| 2026-05-08 02:02 | 53.79718 | 6.41363 | 37144 ft | 493 kts | 56° |
| 2026-05-08 02:02 | 53.83557 | 6.50894 | 37142 ft | 493 kts | 56° |
| 2026-05-08 02:03 | 53.87403 | 6.60477 | 37146 ft | 493 kts | 56° |
| 2026-05-08 02:03 | 53.91261 | 6.70127 | 37148 ft | 492 kts | 56° |
| 2026-05-08 02:04 | 53.95076 | 6.79708 | 37147 ft | 492 kts | 56° |
| 2026-05-08 02:04 | 53.98906 | 6.89363 | 37152 ft | 491 kts | 56° |
| 2026-05-08 02:05 | 54.02704 | 6.98973 | 37163 ft | 491 kts | 57° |
| 2026-05-08 02:05 | 54.06508 | 7.08635 | 37157 ft | 491 kts | 57° |
| 2026-05-08 02:06 | 54.10309 | 7.18329 | 37160 ft | 490 kts | 57° |
| 2026-05-08 02:06 | 54.14082 | 7.27988 | 37156 ft | 490 kts | 57° |
| 2026-05-08 02:07 | 54.17841 | 7.37649 | 37159 ft | 490 kts | 57° |
| 2026-05-08 02:07 | 54.21606 | 7.47361 | 37164 ft | 489 kts | 57° |
| 2026-05-08 02:08 | 54.25350 | 7.57060 | 37164 ft | 489 kts | 57° |
| 2026-05-08 02:08 | 54.29091 | 7.66785 | 37166 ft | 488 kts | 58° |
| 2026-05-08 02:09 | 54.32798 | 7.76463 | 37171 ft | 488 kts | 58° |
| 2026-05-08 02:09 | 54.36519 | 7.86215 | 37169 ft | 487 kts | 58° |
| 2026-05-08 02:10 | 54.40200 | 7.95898 | 37173 ft | 486 kts | 58° |
| 2026-05-08 02:10 | 54.43897 | 8.05663 | 37170 ft | 486 kts | 58° |
| 2026-05-08 02:11 | 54.47547 | 8.15341 | 37172 ft | 485 kts | 58° |
| 2026-05-08 02:11 | 54.51214 | 8.25100 | 37171 ft | 484 kts | 58° |
| 2026-05-08 02:12 | 54.54868 | 8.34868 | 37171 ft | 484 kts | 58° |
| 2026-05-08 02:12 | 54.58478 | 8.44552 | 37172 ft | 483 kts | 58° |
| 2026-05-08 02:13 | 54.62112 | 8.54341 | 37171 ft | 483 kts | 58° |
| 2026-05-08 02:13 | 54.65709 | 8.64069 | 37176 ft | 482 kts | 58° |
| 2026-05-08 02:14 | 54.69320 | 8.73872 | 37177 ft | 482 kts | 58° |
| 2026-05-08 02:14 | 54.72293 | 8.81974 | 37177 ft | 482 kts | 58° |
| 2026-05-08 02:15 | 54.75883 | 8.91792 | 37180 ft | 482 kts | 58° |
| 2026-05-08 02:15 | 54.79443 | 9.01567 | 37180 ft | 481 kts | 59° |
| 2026-05-08 02:16 | 54.83017 | 9.11416 | 37181 ft | 481 kts | 59° |
| 2026-05-08 02:16 | 54.86239 | 9.21541 | 37183 ft | 480 kts | 67° |
| 2026-05-08 02:17 | 54.88443 | 9.32479 | 37187 ft | 479 kts | 73° |
| 2026-05-08 02:17 | 54.90419 | 9.43487 | 37184 ft | 479 kts | 73° |
| 2026-05-08 02:18 | 54.92416 | 9.54569 | 37185 ft | 479 kts | 73° |
| 2026-05-08 02:18 | 54.94421 | 9.65585 | 37185 ft | 479 kts | 73° |
| 2026-05-08 02:19 | 54.96440 | 9.76677 | 37184 ft | 480 kts | 73° |
| 2026-05-08 02:19 | 54.98437 | 9.87705 | 37186 ft | 480 kts | 73° |
| 2026-05-08 02:20 | 55.00439 | 9.98841 | 37185 ft | 480 kts | 73° |
| 2026-05-08 02:20 | 55.02417 | 10.09910 | 37190 ft | 480 kts | 73° |
| 2026-05-08 02:21 | 55.04392 | 10.21036 | 37193 ft | 480 kts | 73° |
| 2026-05-08 02:21 | 55.06350 | 10.32130 | 37198 ft | 479 kts | 73° |
| 2026-05-08 02:22 | 55.08303 | 10.43267 | 37202 ft | 479 kts | 73° |
| 2026-05-08 02:22 | 55.10236 | 10.54357 | 37202 ft | 479 kts | 73° |
| 2026-05-08 02:23 | 55.12170 | 10.65520 | 37200 ft | 479 kts | 73° |
| 2026-05-08 02:23 | 55.14095 | 10.76702 | 37201 ft | 479 kts | 74° |
| 2026-05-08 02:24 | 55.15994 | 10.87804 | 37199 ft | 479 kts | 74° |
| 2026-05-08 02:24 | 55.17895 | 10.98985 | 37200 ft | 479 kts | 74° |
| 2026-05-08 02:25 | 55.19786 | 11.10181 | 37204 ft | 479 kts | 74° |
| 2026-05-08 02:25 | 55.21654 | 11.21311 | 37204 ft | 479 kts | 74° |
| 2026-05-08 02:26 | 55.23523 | 11.32520 | 37206 ft | 479 kts | 74° |
| 2026-05-08 02:26 | 55.25383 | 11.43743 | 37206 ft | 479 kts | 74° |
| 2026-05-08 02:27 | 55.27223 | 11.54916 | 37207 ft | 479 kts | 74° |
| 2026-05-08 02:27 | 55.29067 | 11.66196 | 37207 ft | 479 kts | 74° |
| 2026-05-08 02:28 | 55.30883 | 11.77371 | 37205 ft | 479 kts | 75° |
| 2026-05-08 02:28 | 55.32703 | 11.88639 | 37208 ft | 479 kts | 75° |
| 2026-05-08 02:29 | 55.34512 | 11.99924 | 37209 ft | 479 kts | 75° |
| 2026-05-08 02:29 | 55.36298 | 12.11135 | 37214 ft | 479 kts | 75° |
| 2026-05-08 02:30 | 55.38081 | 12.22402 | 37209 ft | 479 kts | 75° |
| 2026-05-08 02:30 | 55.39863 | 12.33738 | 37210 ft | 479 kts | 75° |
| 2026-05-08 02:31 | 55.41621 | 12.45002 | 37210 ft | 479 kts | 75° |
| 2026-05-08 02:31 | 55.43382 | 12.56361 | 37209 ft | 479 kts | 75° |
| 2026-05-08 02:32 | 55.45128 | 12.67700 | 37211 ft | 479 kts | 75° |
| 2026-05-08 02:32 | 55.46860 | 12.79013 | 37209 ft | 479 kts | 75° |
| 2026-05-08 02:33 | 55.48616 | 12.90282 | 37206 ft | 479 kts | 72° |
| 2026-05-08 02:33 | 55.50734 | 13.01456 | 37190 ft | 479 kts | 71° |
| 2026-05-08 02:34 | 55.52925 | 13.12588 | 37200 ft | 479 kts | 71° |
| 2026-05-08 02:34 | 55.55078 | 13.23657 | 37185 ft | 479 kts | 71° |
| 2026-05-08 02:35 | 55.57216 | 13.34835 | 37181 ft | 479 kts | 72° |
| 2026-05-08 02:35 | 55.59338 | 13.46036 | 37180 ft | 479 kts | 72° |
| 2026-05-08 02:36 | 55.61433 | 13.57169 | 37189 ft | 479 kts | 72° |
| 2026-05-08 02:36 | 55.63536 | 13.68406 | 37207 ft | 479 kts | 72° |
| 2026-05-08 02:37 | 55.65623 | 13.79616 | 37216 ft | 479 kts | 72° |
| 2026-05-08 02:37 | 55.67693 | 13.90804 | 37228 ft | 479 kts | 72° |
| 2026-05-08 02:38 | 55.69751 | 14.01993 | 37211 ft | 479 kts | 72° |
| 2026-05-08 02:38 | 55.71811 | 14.13260 | 37210 ft | 479 kts | 72° |
| 2026-05-08 02:39 | 55.73858 | 14.24526 | 37210 ft | 479 kts | 72° |
| 2026-05-08 02:39 | 55.75883 | 14.35742 | 37230 ft | 479 kts | 73° |
| 2026-05-08 02:40 | 55.77909 | 14.47028 | 37230 ft | 478 kts | 73° |
| 2026-05-08 02:40 | 55.79925 | 14.58328 | 37233 ft | 478 kts | 73° |
| 2026-05-08 02:41 | 55.81916 | 14.69555 | 37215 ft | 478 kts | 73° |
| 2026-05-08 02:41 | 55.83910 | 14.80872 | 37232 ft | 479 kts | 73° |
| 2026-05-08 02:42 | 55.85886 | 14.92154 | 37234 ft | 479 kts | 73° |
| 2026-05-08 02:42 | 55.87865 | 15.03529 | 37231 ft | 479 kts | 73° |
| 2026-05-08 02:43 | 55.89815 | 15.14802 | 37234 ft | 479 kts | 73° |
| 2026-05-08 02:43 | 55.91772 | 15.26192 | 37227 ft | 479 kts | 73° |
| 2026-05-08 02:44 | 55.93704 | 15.37506 | 37228 ft | 479 kts | 73° |
| 2026-05-08 02:44 | 55.95641 | 15.48923 | 37230 ft | 480 kts | 74° |
| 2026-05-08 02:45 | 55.97569 | 15.60357 | 37234 ft | 480 kts | 74° |
| 2026-05-08 02:45 | 55.99477 | 15.71756 | 37240 ft | 481 kts | 74° |
| 2026-05-08 02:46 | 56.01377 | 15.83175 | 37242 ft | 481 kts | 74° |
| 2026-05-08 02:46 | 56.03283 | 15.94701 | 37234 ft | 481 kts | 74° |
| 2026-05-08 02:47 | 56.05164 | 16.06160 | 37243 ft | 481 kts | 74° |
| 2026-05-08 02:47 | 56.07032 | 16.17610 | 37232 ft | 481 kts | 75° |
| 2026-05-08 02:48 | 56.08898 | 16.29125 | 37234 ft | 481 kts | 75° |
| 2026-05-08 02:48 | 56.10742 | 16.40586 | 37239 ft | 481 kts | 75° |
| 2026-05-08 02:49 | 56.12589 | 16.52137 | 37238 ft | 481 kts | 75° |
| 2026-05-08 02:49 | 56.14412 | 16.63622 | 37237 ft | 481 kts | 75° |
| 2026-05-08 02:50 | 56.16238 | 16.75197 | 37241 ft | 482 kts | 75° |
| 2026-05-08 02:50 | 56.18059 | 16.86823 | 37236 ft | 483 kts | 75° |
| 2026-05-08 02:51 | 56.19866 | 16.98448 | 37242 ft | 483 kts | 75° |
| 2026-05-08 02:51 | 56.21659 | 17.10051 | 37237 ft | 484 kts | 75° |
| 2026-05-08 02:52 | 56.23446 | 17.21704 | 37235 ft | 485 kts | 76° |
| 2026-05-08 02:52 | 56.25229 | 17.33418 | 37239 ft | 485 kts | 76° |
| 2026-05-08 02:53 | 56.27004 | 17.45155 | 37237 ft | 486 kts | 76° |
| 2026-05-08 02:53 | 56.28759 | 17.56845 | 37234 ft | 486 kts | 76° |
| 2026-05-08 02:54 | 56.30515 | 17.68630 | 37238 ft | 486 kts | 76° |
| 2026-05-08 02:54 | 56.32254 | 17.80382 | 37235 ft | 487 kts | 76° |
| 2026-05-08 02:55 | 56.34859 | 17.98150 | 37236 ft | 489 kts | 76° |
| 2026-05-08 02:56 | 56.36577 | 18.09981 | 37234 ft | 489 kts | 76° |
| 2026-05-08 02:56 | 56.38293 | 18.21884 | 37237 ft | 490 kts | 76° |
| 2026-05-08 02:57 | 56.40002 | 18.33829 | 37230 ft | 491 kts | 76° |
| 2026-05-08 02:57 | 56.41689 | 18.45710 | 37230 ft | 491 kts | 77° |
| 2026-05-08 02:58 | 56.43376 | 18.57688 | 37231 ft | 491 kts | 77° |
| 2026-05-08 02:58 | 56.45053 | 18.69688 | 37229 ft | 491 kts | 77° |
| 2026-05-08 02:59 | 56.46708 | 18.81613 | 37231 ft | 491 kts | 77° |
| 2026-05-08 02:59 | 56.48362 | 18.93628 | 37229 ft | 491 kts | 77° |
| 2026-05-08 03:00 | 56.49998 | 19.05613 | 37229 ft | 492 kts | 77° |
| 2026-05-08 03:00 | 56.51630 | 19.17661 | 37232 ft | 492 kts | 77° |
| 2026-05-08 03:01 | 56.53244 | 19.29670 | 37225 ft | 492 kts | 77° |
| 2026-05-08 03:01 | 56.54854 | 19.41752 | 37224 ft | 492 kts | 77° |
| 2026-05-08 03:02 | 56.56444 | 19.53776 | 37221 ft | 493 kts | 77° |
| 2026-05-08 03:02 | 56.57767 | 19.63852 | 37226 ft | 493 kts | 78° |
| 2026-05-08 03:03 | 56.59347 | 19.75988 | 37223 ft | 494 kts | 78° |
| 2026-05-08 03:03 | 56.60918 | 19.88148 | 37221 ft | 494 kts | 78° |
| 2026-05-08 03:04 | 56.62723 | 20.02254 | 37216 ft | 494 kts | 78° |
| 2026-05-08 03:04 | 56.64019 | 20.12463 | 37214 ft | 495 kts | 78° |
| 2026-05-08 03:05 | 56.65547 | 20.24595 | 37219 ft | 495 kts | 78° |
| 2026-05-08 03:05 | 56.67076 | 20.36841 | 37222 ft | 496 kts | 78° |
| 2026-05-08 03:06 | 56.68584 | 20.49032 | 37216 ft | 496 kts | 78° |
| 2026-05-08 03:06 | 56.70092 | 20.61318 | 37216 ft | 496 kts | 78° |
| 2026-05-08 03:07 | 56.71577 | 20.73535 | 37204 ft | 497 kts | 78° |
| 2026-05-08 03:07 | 56.73063 | 20.85860 | 37201 ft | 497 kts | 78° |
| 2026-05-08 03:08 | 56.74537 | 20.98203 | 37200 ft | 498 kts | 78° |
| 2026-05-08 03:08 | 56.75990 | 21.10479 | 37205 ft | 498 kts | 78° |
| 2026-05-08 03:09 | 56.77433 | 21.22779 | 37207 ft | 498 kts | 79° |
| 2026-05-08 03:09 | 56.78875 | 21.35184 | 37215 ft | 499 kts | 79° |
| 2026-05-08 03:10 | 56.80303 | 21.47586 | 37210 ft | 499 kts | 79° |
| 2026-05-08 03:10 | 56.81721 | 21.60019 | 37217 ft | 500 kts | 79° |
| 2026-05-08 03:11 | 56.83119 | 21.72391 | 37218 ft | 500 kts | 79° |
| 2026-05-08 03:11 | 56.84516 | 21.84875 | 37217 ft | 500 kts | 79° |
| 2026-05-08 03:12 | 56.85900 | 21.97360 | 37209 ft | 501 kts | 79° |
| 2026-05-08 03:12 | 56.87265 | 22.09805 | 37212 ft | 501 kts | 79° |
| 2026-05-08 03:13 | 56.88622 | 22.22270 | 37217 ft | 502 kts | 79° |
| 2026-05-08 03:13 | 56.89660 | 22.34896 | 37200 ft | 501 kts | 89° |
| 2026-05-08 03:14 | 56.89293 | 22.47531 | 37208 ft | 499 kts | 101° |
| 2026-05-08 03:14 | 56.87884 | 22.59973 | 37202 ft | 498 kts | 104° |
| 2026-05-08 03:15 | 56.86387 | 22.72356 | 37206 ft | 499 kts | 104° |
| 2026-05-08 03:15 | 56.84922 | 22.84700 | 37199 ft | 499 kts | 104° |
| 2026-05-08 03:16 | 56.83467 | 22.97121 | 37203 ft | 500 kts | 104° |
| 2026-05-08 03:16 | 56.82004 | 23.09564 | 37206 ft | 500 kts | 104° |
| 2026-05-08 03:17 | 56.80534 | 23.21933 | 37195 ft | 500 kts | 104° |
| 2026-05-08 03:17 | 56.79039 | 23.34388 | 37194 ft | 500 kts | 104° |
| 2026-05-08 03:18 | 56.77541 | 23.46737 | 37191 ft | 501 kts | 104° |
| 2026-05-08 03:18 | 56.76024 | 23.59146 | 37188 ft | 501 kts | 105° |
| 2026-05-08 03:19 | 56.74501 | 23.71490 | 37189 ft | 501 kts | 105° |
| 2026-05-08 03:19 | 56.72957 | 23.83894 | 37183 ft | 501 kts | 105° |
| 2026-05-08 03:20 | 56.71400 | 23.96292 | 37184 ft | 502 kts | 105° |
| 2026-05-08 03:20 | 56.69837 | 24.08632 | 37181 ft | 502 kts | 105° |
| 2026-05-08 03:21 | 56.68253 | 24.21029 | 37182 ft | 503 kts | 106° |
| 2026-05-08 03:21 | 56.66654 | 24.33434 | 37175 ft | 504 kts | 106° |
| 2026-05-08 03:22 | 56.65049 | 24.45785 | 37183 ft | 504 kts | 106° |
| 2026-05-08 03:22 | 56.63431 | 24.58135 | 37182 ft | 505 kts | 106° |
| 2026-05-08 03:23 | 56.61788 | 24.70583 | 37177 ft | 506 kts | 107° |
| 2026-05-08 03:23 | 56.60190 | 24.83046 | 37186 ft | 507 kts | 103° |
| 2026-05-08 03:24 | 56.59351 | 24.95768 | 37185 ft | 510 kts | 98° |
| 2026-05-08 03:24 | 56.58678 | 25.08531 | 37176 ft | 510 kts | 98° |
| 2026-05-08 03:25 | 56.57927 | 25.21368 | 37175 ft | 510 kts | 99° |
| 2026-05-08 03:25 | 56.57143 | 25.34121 | 37174 ft | 511 kts | 99° |
| 2026-05-08 03:26 | 56.56329 | 25.46938 | 37166 ft | 511 kts | 99° |
| 2026-05-08 03:26 | 56.55506 | 25.59710 | 37170 ft | 511 kts | 99° |
| 2026-05-08 03:27 | 56.54674 | 25.72475 | 37168 ft | 511 kts | 99° |
| 2026-05-08 03:27 | 56.53825 | 25.85289 | 37166 ft | 512 kts | 99° |
| 2026-05-08 03:28 | 56.52962 | 25.98111 | 37167 ft | 512 kts | 99° |
| 2026-05-08 03:28 | 56.52086 | 26.10933 | 37161 ft | 512 kts | 100° |
| 2026-05-08 03:29 | 56.51203 | 26.23655 | 37163 ft | 512 kts | 100° |
| 2026-05-08 03:29 | 56.50299 | 26.36479 | 37162 ft | 512 kts | 100° |
| 2026-05-08 03:30 | 56.48928 | 26.55595 | 37159 ft | 512 kts | 100° |
| 2026-05-08 03:31 | 56.47052 | 26.81200 | 37158 ft | 512 kts | 101° |
| 2026-05-08 03:32 | 56.45626 | 27.00313 | 37158 ft | 512 kts | 101° |
| 2026-05-08 03:32 | 56.44661 | 27.13018 | 37158 ft | 512 kts | 101° |
| 2026-05-08 03:33 | 56.43677 | 27.25793 | 37154 ft | 511 kts | 101° |
| 2026-05-08 03:33 | 56.42689 | 27.38443 | 37152 ft | 511 kts | 101° |
| 2026-05-08 03:34 | 56.41680 | 27.51194 | 37149 ft | 511 kts | 101° |
| 2026-05-08 03:34 | 56.40664 | 27.63855 | 37150 ft | 511 kts | 101° |
| 2026-05-08 03:35 | 56.39628 | 27.76597 | 37148 ft | 512 kts | 101° |
| 2026-05-08 03:35 | 56.38586 | 27.89258 | 37144 ft | 512 kts | 102° |
| 2026-05-08 03:36 | 56.37524 | 28.01989 | 37137 ft | 513 kts | 102° |
| 2026-05-08 03:36 | 56.36450 | 28.14725 | 37133 ft | 513 kts | 102° |
| 2026-05-08 03:37 | 56.35354 | 28.27383 | 37122 ft | 513 kts | 102° |
| 2026-05-08 03:37 | 56.34195 | 28.40140 | 37113 ft | 514 kts | 102° |
| 2026-05-08 03:38 | 56.33029 | 28.52812 | 37110 ft | 514 kts | 102° |
| 2026-05-08 03:38 | 56.31856 | 28.65495 | 37116 ft | 514 kts | 103° |
| 2026-05-08 03:39 | 56.30666 | 28.78234 | 37111 ft | 515 kts | 103° |
| 2026-05-08 03:39 | 56.29466 | 28.90929 | 37110 ft | 515 kts | 103° |
| 2026-05-08 03:40 | 56.28251 | 29.03666 | 37110 ft | 515 kts | 103° |
| 2026-05-08 03:40 | 56.27038 | 29.16314 | 37107 ft | 516 kts | 103° |
| 2026-05-08 03:41 | 56.25822 | 29.29066 | 37108 ft | 516 kts | 103° |
| 2026-05-08 03:41 | 56.24603 | 29.41737 | 37107 ft | 516 kts | 103° |
| 2026-05-08 03:42 | 56.23369 | 29.54395 | 37110 ft | 516 kts | 103° |
| 2026-05-08 03:42 | 56.22115 | 29.67103 | 37107 ft | 516 kts | 103° |
| 2026-05-08 03:43 | 56.20851 | 29.79769 | 37107 ft | 516 kts | 103° |
| 2026-05-08 03:43 | 56.19568 | 29.92484 | 37105 ft | 516 kts | 103° |
| 2026-05-08 03:44 | 56.18284 | 30.05081 | 37113 ft | 516 kts | 103° |
| 2026-05-08 03:44 | 56.16974 | 30.17813 | 37095 ft | 516 kts | 103° |
| 2026-05-08 03:45 | 56.15655 | 30.30485 | 37092 ft | 516 kts | 103° |
| 2026-05-08 03:45 | 56.14327 | 30.43097 | 37089 ft | 516 kts | 103° |
| 2026-05-08 03:46 | 56.12983 | 30.55764 | 37089 ft | 516 kts | 104° |
| 2026-05-08 03:46 | 56.11619 | 30.68331 | 37094 ft | 516 kts | 104° |
| 2026-05-08 03:47 | 56.10227 | 30.80960 | 37092 ft | 516 kts | 104° |
| 2026-05-08 03:47 | 56.08835 | 30.93522 | 37090 ft | 516 kts | 104° |
| 2026-05-08 03:48 | 56.07439 | 31.06068 | 37090 ft | 516 kts | 104° |
| 2026-05-08 03:48 | 56.06057 | 31.18703 | 37082 ft | 516 kts | 104° |
| 2026-05-08 03:49 | 56.04677 | 31.31263 | 37083 ft | 516 kts | 104° |
| 2026-05-08 03:49 | 56.03272 | 31.43880 | 37079 ft | 516 kts | 104° |
| 2026-05-08 03:50 | 56.01857 | 31.56438 | 37072 ft | 517 kts | 104° |
| 2026-05-08 03:50 | 56.00421 | 31.69050 | 37074 ft | 517 kts | 104° |
| 2026-05-08 03:51 | 55.99221 | 31.79516 | 37070 ft | 517 kts | 104° |
| 2026-05-08 03:51 | 55.97524 | 31.94180 | 37066 ft | 517 kts | 104° |
| 2026-05-08 03:52 | 55.96289 | 32.04665 | 37065 ft | 517 kts | 104° |
| 2026-05-08 03:52 | 55.94792 | 32.17250 | 37064 ft | 517 kts | 104° |
| 2026-05-08 03:53 | 55.93287 | 32.29815 | 37062 ft | 517 kts | 104° |
| 2026-05-08 03:53 | 55.91780 | 32.42289 | 37053 ft | 517 kts | 104° |
| 2026-05-08 03:54 | 55.90254 | 32.54809 | 37053 ft | 517 kts | 104° |
| 2026-05-08 03:54 | 55.88718 | 32.67298 | 37051 ft | 517 kts | 104° |
| 2026-05-08 03:55 | 55.87167 | 32.79803 | 37047 ft | 517 kts | 105° |
| 2026-05-08 03:55 | 55.85829 | 32.92410 | 37042 ft | 519 kts | 98° |
| 2026-05-08 03:56 | 55.85632 | 33.05284 | 37041 ft | 520 kts | 88° |
| 2026-05-08 03:56 | 55.86080 | 33.18083 | 37041 ft | 520 kts | 87° |
| 2026-05-08 03:57 | 55.86531 | 33.30969 | 37039 ft | 520 kts | 87° |
| 2026-05-08 03:57 | 55.86921 | 33.43757 | 37036 ft | 519 kts | 88° |
| 2026-05-08 03:58 | 55.87279 | 33.56637 | 37035 ft | 519 kts | 88° |
| 2026-05-08 03:58 | 55.87621 | 33.69423 | 37029 ft | 519 kts | 88° |
| 2026-05-08 03:59 | 55.87955 | 33.82307 | 37033 ft | 520 kts | 88° |
| 2026-05-08 03:59 | 55.88276 | 33.95110 | 37022 ft | 519 kts | 88° |
| 2026-05-08 04:00 | 55.88584 | 34.07973 | 37028 ft | 518 kts | 88° |
| 2026-05-08 04:00 | 55.88876 | 34.20732 | 37031 ft | 517 kts | 88° |
| 2026-05-08 04:01 | 55.89158 | 34.33542 | 37017 ft | 517 kts | 88° |
| 2026-05-08 04:01 | 55.89417 | 34.46367 | 37023 ft | 516 kts | 89° |
| 2026-05-08 04:02 | 55.89654 | 34.59080 | 37016 ft | 516 kts | 89° |
| 2026-05-08 04:02 | 55.89880 | 34.71892 | 37021 ft | 515 kts | 89° |
| 2026-05-08 04:03 | 55.90096 | 34.84691 | 37014 ft | 516 kts | 89° |
| 2026-05-08 04:03 | 55.90394 | 35.03802 | 37021 ft | 515 kts | 89° |
| 2026-05-08 04:04 | 55.90584 | 35.16586 | 37010 ft | 515 kts | 89° |
| 2026-05-08 04:04 | 55.90765 | 35.29308 | 37022 ft | 516 kts | 89° |
| 2026-05-08 04:05 | 55.90933 | 35.42048 | 37018 ft | 516 kts | 89° |
| 2026-05-08 04:05 | 55.91089 | 35.54885 | 37010 ft | 516 kts | 89° |
| 2026-05-08 04:06 | 55.91231 | 35.67626 | 37000 ft | 515 kts | 89° |
| 2026-05-08 04:06 | 55.91361 | 35.80409 | 37001 ft | 514 kts | 89° |
| 2026-05-08 04:07 | 55.91480 | 35.93101 | 37003 ft | 514 kts | 90° |
| 2026-05-08 04:07 | 55.91599 | 36.05861 | 37008 ft | 512 kts | 90° |
| 2026-05-08 04:08 | 55.91718 | 36.18491 | 36987 ft | 511 kts | 90° |
| 2026-05-08 04:08 | 55.91838 | 36.31173 | 36976 ft | 503 kts | 90° |
| 2026-05-08 04:09 | 55.91897 | 36.37254 | 36965 ft | 488 kts | 90° |
| 2026-05-08 04:09 | 55.91956 | 36.43208 | 36961 ft | 473 kts | 90° |
| 2026-05-08 04:09 | 55.92015 | 36.49001 | 36963 ft | 459 kts | 90° |
| 2026-05-08 04:09 | 55.92073 | 36.54700 | 36995 ft | 460 kts | 90° |
| 2026-05-08 04:10 | 55.92189 | 36.66037 | 36970 ft | 459 kts | 89° |
| 2026-05-08 04:10 | 55.92307 | 36.77407 | 36975 ft | 457 kts | 89° |
| 2026-05-08 04:11 | 55.92424 | 36.88749 | 36977 ft | 455 kts | 90° |
| 2026-05-08 04:11 | 55.92541 | 36.99986 | 36971 ft | 454 kts | 90° |
| 2026-05-08 04:12 | 55.92659 | 37.11201 | 36965 ft | 453 kts | 89° |
| 2026-05-08 04:12 | 55.92778 | 37.22482 | 36962 ft | 450 kts | 89° |
| 2026-05-08 04:13 | 55.92894 | 37.33386 | 36967 ft | 438 kts | 89° |
| 2026-05-08 04:13 | 55.93011 | 37.44221 | 36960 ft | 435 kts | 89° |
| 2026-05-08 04:14 | 55.93127 | 37.55029 | 36968 ft | 436 kts | 89° |
| 2026-05-08 04:14 | 55.93243 | 37.65835 | 36975 ft | 440 kts | 89° |
| 2026-05-08 04:15 | 55.93362 | 37.76953 | 36972 ft | 454 kts | 89° |
| 2026-05-08 04:15 | 55.93482 | 37.88289 | 36957 ft | 457 kts | 89° |
| 2026-05-08 04:16 | 55.93602 | 37.99672 | 36961 ft | 458 kts | 89° |
| 2026-05-08 04:16 | 55.93722 | 38.10992 | 36946 ft | 458 kts | 89° |
| 2026-05-08 04:17 | 55.93841 | 38.22305 | 36949 ft | 457 kts | 89° |
| 2026-05-08 04:17 | 55.93962 | 38.33640 | 36940 ft | 455 kts | 89° |
| 2026-05-08 04:18 | 55.94082 | 38.44879 | 36942 ft | 453 kts | 89° |
| 2026-05-08 04:18 | 55.94203 | 38.56115 | 36940 ft | 452 kts | 89° |
| 2026-05-08 04:19 | 55.94324 | 38.67431 | 36959 ft | 466 kts | 89° |
| 2026-05-08 04:19 | 55.94448 | 38.79257 | 36957 ft | 483 kts | 89° |
| 2026-05-08 04:20 | 55.94574 | 38.91367 | 36952 ft | 497 kts | 89° |
| 2026-05-08 04:20 | 55.94703 | 39.03921 | 36947 ft | 509 kts | 89° |
| 2026-05-08 04:21 | 55.94832 | 39.16512 | 36926 ft | 510 kts | 89° |
| 2026-05-08 04:21 | 55.94962 | 39.29175 | 36922 ft | 509 kts | 89° |
| 2026-05-08 04:22 | 55.95092 | 39.41816 | 36921 ft | 508 kts | 89° |
| 2026-05-08 04:22 | 55.95221 | 39.54336 | 36921 ft | 506 kts | 89° |
| 2026-05-08 04:23 | 55.95351 | 39.66905 | 36918 ft | 504 kts | 89° |
| 2026-05-08 04:23 | 55.95481 | 39.79368 | 36923 ft | 504 kts | 89° |
| 2026-05-08 04:24 | 55.95612 | 39.91878 | 36920 ft | 503 kts | 89° |
| 2026-05-08 04:24 | 55.95741 | 40.04304 | 36923 ft | 503 kts | 89° |
| 2026-05-08 04:25 | 55.95872 | 40.16851 | 36921 ft | 504 kts | 89° |
| 2026-05-08 04:25 | 55.96003 | 40.29291 | 36918 ft | 504 kts | 89° |
| 2026-05-08 04:26 | 55.96134 | 40.41830 | 36918 ft | 504 kts | 89° |
| 2026-05-08 04:26 | 55.96265 | 40.54284 | 36914 ft | 504 kts | 89° |
| 2026-05-08 04:27 | 55.96397 | 40.66829 | 36914 ft | 504 kts | 89° |
| 2026-05-08 04:27 | 55.96529 | 40.79341 | 36906 ft | 504 kts | 89° |
| 2026-05-08 04:28 | 55.96661 | 40.91780 | 36912 ft | 503 kts | 89° |
| 2026-05-08 04:28 | 55.96794 | 41.04283 | 36905 ft | 503 kts | 89° |
| 2026-05-08 04:29 | 55.96927 | 41.16788 | 36910 ft | 502 kts | 89° |
| 2026-05-08 04:29 | 55.97059 | 41.29181 | 36901 ft | 502 kts | 89° |
| 2026-05-08 04:30 | 55.97193 | 41.41664 | 36904 ft | 501 kts | 89° |
| 2026-05-08 04:30 | 55.97326 | 41.54045 | 36895 ft | 501 kts | 89° |
| 2026-05-08 04:31 | 55.97460 | 41.66506 | 36898 ft | 501 kts | 89° |
| 2026-05-08 04:31 | 55.97593 | 41.78894 | 36897 ft | 500 kts | 89° |
| 2026-05-08 04:32 | 55.97727 | 41.91345 | 36894 ft | 500 kts | 89° |
| 2026-05-08 04:32 | 55.97860 | 42.03694 | 36892 ft | 500 kts | 89° |
| 2026-05-08 04:33 | 55.97994 | 42.16148 | 36889 ft | 500 kts | 89° |
| 2026-05-08 04:33 | 55.98128 | 42.28577 | 36886 ft | 500 kts | 89° |
| 2026-05-08 04:34 | 55.98261 | 42.40924 | 36886 ft | 500 kts | 89° |
| 2026-05-08 04:34 | 55.98396 | 42.53380 | 36889 ft | 499 kts | 89° |
| 2026-05-08 04:35 | 55.98530 | 42.65733 | 36891 ft | 499 kts | 89° |
| 2026-05-08 04:35 | 55.98664 | 42.78143 | 36881 ft | 499 kts | 89° |
| 2026-05-08 04:36 | 55.98798 | 42.90476 | 36885 ft | 499 kts | 89° |
| 2026-05-08 04:36 | 55.98933 | 43.02927 | 36885 ft | 499 kts | 89° |
| 2026-05-08 04:37 | 55.99067 | 43.15242 | 36884 ft | 498 kts | 89° |
| 2026-05-08 04:37 | 55.99201 | 43.27661 | 36878 ft | 498 kts | 89° |
| 2026-05-08 04:38 | 55.99335 | 43.39967 | 36885 ft | 498 kts | 89° |
| 2026-05-08 04:38 | 55.99470 | 43.52377 | 36881 ft | 498 kts | 89° |
| 2026-05-08 04:39 | 55.99604 | 43.64692 | 36889 ft | 497 kts | 89° |
| 2026-05-08 04:39 | 55.99716 | 43.74992 | 36887 ft | 497 kts | 89° |
| 2026-05-08 04:40 | 55.99872 | 43.89399 | 36879 ft | 497 kts | 89° |
| 2026-05-08 04:40 | 56.00005 | 44.01739 | 36888 ft | 499 kts | 89° |
| 2026-05-08 04:41 | 56.00117 | 44.12073 | 36877 ft | 499 kts | 89° |
| 2026-05-08 04:41 | 56.00251 | 44.24457 | 36882 ft | 500 kts | 89° |
| 2026-05-08 04:42 | 56.00387 | 44.36935 | 36881 ft | 500 kts | 89° |
| 2026-05-08 04:42 | 56.00522 | 44.49384 | 36879 ft | 500 kts | 89° |
| 2026-05-08 04:43 | 56.00656 | 44.61759 | 36882 ft | 500 kts | 89° |
| 2026-05-08 04:43 | 56.00790 | 44.74197 | 36881 ft | 499 kts | 89° |
| 2026-05-08 04:44 | 56.00922 | 44.86495 | 36885 ft | 498 kts | 89° |
| 2026-05-08 04:44 | 56.01055 | 44.98898 | 36885 ft | 497 kts | 89° |
| 2026-05-08 04:45 | 56.01187 | 45.11264 | 36885 ft | 496 kts | 89° |
| 2026-05-08 04:45 | 56.01319 | 45.23572 | 36880 ft | 496 kts | 89° |
| 2026-05-08 04:46 | 56.01450 | 45.35827 | 36882 ft | 495 kts | 89° |
| 2026-05-08 04:46 | 56.01582 | 45.48181 | 36880 ft | 495 kts | 88° |
| 2026-05-08 04:47 | 56.01712 | 45.60430 | 36884 ft | 494 kts | 88° |
| 2026-05-08 04:47 | 56.01843 | 45.72731 | 36881 ft | 494 kts | 88° |
| 2026-05-08 04:48 | 56.01972 | 45.84965 | 36885 ft | 494 kts | 88° |
| 2026-05-08 04:48 | 56.02103 | 45.97309 | 36888 ft | 494 kts | 88° |
| 2026-05-08 04:49 | 56.02232 | 46.09552 | 36883 ft | 494 kts | 88° |
| 2026-05-08 04:49 | 56.02360 | 46.21772 | 36889 ft | 494 kts | 88° |
| 2026-05-08 04:50 | 56.02489 | 46.34109 | 36892 ft | 494 kts | 88° |
| 2026-05-08 04:50 | 56.02615 | 46.46339 | 36894 ft | 494 kts | 88° |
| 2026-05-08 04:51 | 56.02742 | 46.58651 | 36891 ft | 494 kts | 88° |
| 2026-05-08 04:51 | 56.02869 | 46.70973 | 36894 ft | 494 kts | 88° |
| 2026-05-08 04:52 | 56.02996 | 46.83230 | 36900 ft | 494 kts | 88° |
| 2026-05-08 04:52 | 56.03122 | 46.95472 | 36903 ft | 494 kts | 88° |
| 2026-05-08 04:53 | 56.03249 | 47.07811 | 36910 ft | 494 kts | 88° |
| 2026-05-08 04:53 | 56.03374 | 47.20044 | 36909 ft | 494 kts | 88° |
| 2026-05-08 04:54 | 56.03499 | 47.32355 | 36911 ft | 494 kts | 88° |
| 2026-05-08 04:54 | 56.03623 | 47.44671 | 36906 ft | 494 kts | 88° |
| 2026-05-08 04:55 | 56.03747 | 47.56893 | 36912 ft | 494 kts | 88° |
| 2026-05-08 04:55 | 56.03870 | 47.69212 | 36905 ft | 494 kts | 88° |
| 2026-05-08 04:56 | 56.03992 | 47.81440 | 36912 ft | 493 kts | 88° |
| 2026-05-08 04:56 | 56.04114 | 47.93747 | 36911 ft | 493 kts | 88° |
| 2026-05-08 04:57 | 56.04235 | 48.05987 | 36912 ft | 493 kts | 88° |
| 2026-05-08 04:57 | 56.04355 | 48.18188 | 36914 ft | 493 kts | 88° |
| 2026-05-08 04:58 | 56.04475 | 48.30482 | 36915 ft | 493 kts | 88° |
| 2026-05-08 04:58 | 56.04594 | 48.42685 | 36913 ft | 493 kts | 88° |
| 2026-05-08 04:59 | 56.04712 | 48.54955 | 36923 ft | 493 kts | 88° |
| 2026-05-08 04:59 | 56.04831 | 48.67268 | 36929 ft | 493 kts | 88° |
| 2026-05-08 05:00 | 56.04949 | 48.79490 | 36930 ft | 493 kts | 88° |
| 2026-05-08 05:00 | 56.05067 | 48.91814 | 36927 ft | 494 kts | 88° |
| 2026-05-08 05:01 | 56.05184 | 49.04065 | 36935 ft | 493 kts | 88° |
| 2026-05-08 05:01 | 56.05300 | 49.16305 | 36928 ft | 493 kts | 88° |
| 2026-05-08 05:02 | 56.05416 | 49.28615 | 36935 ft | 493 kts | 88° |
| 2026-05-08 05:02 | 56.05530 | 49.40843 | 36938 ft | 493 kts | 88° |
| 2026-05-08 05:03 | 56.05644 | 49.53068 | 36938 ft | 493 kts | 88° |
| 2026-05-08 05:03 | 56.05758 | 49.65387 | 36941 ft | 493 kts | 88° |
| 2026-05-08 05:04 | 56.05870 | 49.77599 | 36939 ft | 493 kts | 88° |
| 2026-05-08 05:04 | 56.05983 | 49.89911 | 36944 ft | 493 kts | 89° |
| 2026-05-08 05:05 | 56.06094 | 50.02125 | 36950 ft | 493 kts | 89° |
| 2026-05-08 05:05 | 56.06207 | 50.14439 | 36943 ft | 493 kts | 89° |
| 2026-05-08 05:06 | 56.06317 | 50.26631 | 36949 ft | 492 kts | 89° |
| 2026-05-08 05:06 | 56.06428 | 50.38890 | 36946 ft | 492 kts | 89° |
| 2026-05-08 05:07 | 56.06538 | 50.51086 | 36951 ft | 491 kts | 89° |
| 2026-05-08 05:07 | 56.06648 | 50.63328 | 36951 ft | 491 kts | 89° |
| 2026-05-08 05:08 | 56.06756 | 50.75509 | 36951 ft | 491 kts | 89° |
| 2026-05-08 05:08 | 56.06865 | 50.87770 | 36949 ft | 491 kts | 89° |
| 2026-05-08 05:09 | 56.06973 | 50.99946 | 36950 ft | 492 kts | 89° |
| 2026-05-08 05:09 | 56.07082 | 51.12226 | 36956 ft | 492 kts | 89° |
| 2026-05-08 05:10 | 56.07244 | 51.30596 | 36957 ft | 493 kts | 89° |
| 2026-05-08 05:11 | 56.07352 | 51.42905 | 36956 ft | 493 kts | 89° |
| 2026-05-08 05:11 | 56.07461 | 51.55136 | 36960 ft | 494 kts | 89° |
| 2026-05-08 05:12 | 56.07568 | 51.67400 | 36958 ft | 494 kts | 89° |
| 2026-05-08 05:12 | 56.07677 | 51.79728 | 36961 ft | 494 kts | 89° |
| 2026-05-08 05:13 | 56.07785 | 51.91998 | 36958 ft | 494 kts | 89° |
| 2026-05-08 05:13 | 56.07891 | 52.04336 | 36960 ft | 494 kts | 89° |
| 2026-05-08 05:14 | 56.07998 | 52.16665 | 36960 ft | 494 kts | 89° |
| 2026-05-08 05:14 | 56.08105 | 52.28912 | 36966 ft | 494 kts | 89° |
| 2026-05-08 05:15 | 56.08212 | 52.41220 | 36967 ft | 494 kts | 89° |
| 2026-05-08 05:15 | 56.08319 | 52.53546 | 36985 ft | 494 kts | 89° |
| 2026-05-08 05:16 | 56.08425 | 52.65787 | 36983 ft | 494 kts | 89° |
| 2026-05-08 05:16 | 56.08531 | 52.78090 | 36984 ft | 494 kts | 89° |
| 2026-05-08 05:17 | 56.08637 | 52.90330 | 36986 ft | 493 kts | 89° |
| 2026-05-08 05:17 | 56.08743 | 53.02633 | 36975 ft | 493 kts | 89° |
| 2026-05-08 05:18 | 56.08848 | 53.14939 | 36983 ft | 493 kts | 89° |
| 2026-05-08 05:18 | 56.08952 | 53.27164 | 36972 ft | 493 kts | 89° |
| 2026-05-08 05:19 | 56.09056 | 53.39439 | 36983 ft | 493 kts | 89° |
| 2026-05-08 05:19 | 56.09161 | 53.51738 | 36980 ft | 493 kts | 89° |
| 2026-05-08 05:20 | 56.09265 | 53.63970 | 36982 ft | 493 kts | 89° |
| 2026-05-08 05:20 | 56.09369 | 53.76267 | 36975 ft | 493 kts | 89° |
| 2026-05-08 05:21 | 56.09472 | 53.88496 | 36974 ft | 493 kts | 89° |
| 2026-05-08 05:21 | 56.09575 | 54.00786 | 36972 ft | 493 kts | 89° |
| 2026-05-08 05:22 | 56.09678 | 54.13019 | 36972 ft | 493 kts | 89° |
| 2026-05-08 05:22 | 56.09782 | 54.25343 | 36969 ft | 493 kts | 89° |
| 2026-05-08 05:23 | 56.09885 | 54.37658 | 36967 ft | 493 kts | 89° |
| 2026-05-08 05:23 | 56.09987 | 54.49875 | 36965 ft | 493 kts | 89° |
| 2026-05-08 05:24 | 56.10090 | 54.62173 | 36963 ft | 493 kts | 89° |
| 2026-05-08 05:24 | 56.10193 | 54.74484 | 36958 ft | 493 kts | 89° |
| 2026-05-08 05:25 | 56.10296 | 54.86698 | 36969 ft | 493 kts | 89° |
| 2026-05-08 05:25 | 56.10398 | 54.98980 | 36961 ft | 492 kts | 89° |
| 2026-05-08 05:26 | 56.10499 | 55.11193 | 36960 ft | 492 kts | 89° |
| 2026-05-08 05:26 | 56.10601 | 55.23492 | 36952 ft | 492 kts | 89° |
| 2026-05-08 05:27 | 56.10702 | 55.35727 | 36955 ft | 492 kts | 89° |
| 2026-05-08 05:27 | 56.10803 | 55.47998 | 36952 ft | 492 kts | 89° |
| 2026-05-08 05:28 | 56.10888 | 55.58215 | 36952 ft | 492 kts | 89° |
| 2026-05-08 05:28 | 56.11007 | 55.72479 | 36946 ft | 491 kts | 89° |
| 2026-05-08 05:28 | 56.11473 | 55.78492 | 36928 ft | 488 kts | 71° |
| 2026-05-08 05:29 | 56.12371 | 55.82172 | 36955 ft | 487 kts | 58° |
| 2026-05-08 05:29 | 56.14450 | 55.86954 | 36959 ft | 485 kts | 42° |
| 2026-05-08 05:29 | 56.17121 | 55.90639 | 36841 ft | 485 kts | 27° |
| 2026-05-08 05:29 | 56.20202 | 55.92991 | 37000 ft | 478 kts | 13° |
| 2026-05-08 05:30 | 56.23485 | 55.93924 | 36930 ft | 475 kts | 358° |
| 2026-05-08 05:30 | 56.27959 | 55.92585 | 36940 ft | 467 kts | 336° |
| 2026-05-08 05:30 | 56.30821 | 55.89877 | 36963 ft | 462 kts | 322° |
| 2026-05-08 05:31 | 56.33179 | 55.85986 | 36952 ft | 458 kts | 307° |
| 2026-05-08 05:31 | 56.36184 | 55.75676 | 36945 ft | 453 kts | 282° |
| 2026-05-08 05:32 | 56.36898 | 55.64501 | 36961 ft | 451 kts | 274° |
| 2026-05-08 05:32 | 56.37383 | 55.53170 | 36967 ft | 453 kts | 274° |
| 2026-05-08 05:33 | 56.37897 | 55.41876 | 36961 ft | 455 kts | 274° |
| 2026-05-08 05:33 | 56.38454 | 55.30464 | 36966 ft | 456 kts | 275° |
| 2026-05-08 05:34 | 56.39021 | 55.19026 | 36959 ft | 457 kts | 275° |
| 2026-05-08 05:34 | 56.39578 | 55.07630 | 36966 ft | 457 kts | 275° |
| 2026-05-08 05:35 | 56.40122 | 54.96254 | 36967 ft | 456 kts | 275° |
| 2026-05-08 05:35 | 56.40657 | 54.84832 | 36966 ft | 455 kts | 274° |
| 2026-05-08 05:36 | 56.41179 | 54.73432 | 36972 ft | 454 kts | 274° |
| 2026-05-08 05:36 | 56.41687 | 54.62116 | 36965 ft | 454 kts | 274° |
| 2026-05-08 05:37 | 56.42187 | 54.50729 | 36972 ft | 453 kts | 274° |
| 2026-05-08 05:37 | 56.42674 | 54.39437 | 36976 ft | 452 kts | 274° |
| 2026-05-08 05:38 | 56.43153 | 54.28070 | 36971 ft | 452 kts | 274° |
| 2026-05-08 05:38 | 56.43618 | 54.16778 | 36974 ft | 452 kts | 274° |
| 2026-05-08 05:39 | 56.44069 | 54.05449 | 36973 ft | 451 kts | 272° |
| 2026-05-08 05:39 | 56.44081 | 53.99791 | 36866 ft | 449 kts | 268° |
| 2026-05-08 05:39 | 56.43960 | 53.94183 | 36539 ft | 449 kts | 268° |
| 2026-05-08 05:39 | 56.43871 | 53.88512 | 36132 ft | 451 kts | 269° |
| 2026-05-08 05:40 | 56.43874 | 53.82796 | 35977 ft | 454 kts | 271° |
| 2026-05-08 05:40 | 56.44121 | 53.71278 | 35996 ft | 462 kts | 273° |
| 2026-05-08 05:41 | 56.44533 | 53.59684 | 35987 ft | 464 kts | 274° |
| 2026-05-08 05:41 | 56.44977 | 53.48052 | 35979 ft | 462 kts | 274° |
| 2026-05-08 05:42 | 56.45403 | 53.36452 | 35987 ft | 461 kts | 274° |
| 2026-05-08 05:42 | 56.45804 | 53.24939 | 35977 ft | 460 kts | 274° |
| 2026-05-08 05:43 | 56.46193 | 53.13374 | 35990 ft | 459 kts | 274° |
| 2026-05-08 05:43 | 56.46568 | 53.01865 | 35979 ft | 459 kts | 273° |
| 2026-05-08 05:44 | 56.46934 | 52.90333 | 35981 ft | 459 kts | 273° |
| 2026-05-08 05:44 | 56.47288 | 52.78840 | 35978 ft | 459 kts | 273° |
| 2026-05-08 05:45 | 56.47634 | 52.67269 | 35982 ft | 460 kts | 273° |
| 2026-05-08 05:45 | 56.47968 | 52.55746 | 35984 ft | 460 kts | 273° |
| 2026-05-08 05:46 | 56.48292 | 52.44140 | 35978 ft | 460 kts | 273° |
| 2026-05-08 05:46 | 56.48606 | 52.32569 | 35977 ft | 461 kts | 273° |
| 2026-05-08 05:47 | 56.48909 | 52.20989 | 35979 ft | 461 kts | 273° |
| 2026-05-08 05:47 | 56.49200 | 52.09446 | 35975 ft | 461 kts | 273° |
| 2026-05-08 05:48 | 56.49480 | 51.97830 | 35960 ft | 461 kts | 272° |
| 2026-05-08 05:48 | 56.49752 | 51.86234 | 35967 ft | 461 kts | 272° |
| 2026-05-08 05:49 | 56.50013 | 51.74633 | 35967 ft | 460 kts | 272° |
| 2026-05-08 05:49 | 56.50260 | 51.63123 | 35964 ft | 460 kts | 272° |
| 2026-05-08 05:50 | 56.50498 | 51.51528 | 35963 ft | 461 kts | 272° |
| 2026-05-08 05:50 | 56.50725 | 51.39903 | 35964 ft | 461 kts | 272° |
| 2026-05-08 05:51 | 56.50941 | 51.28340 | 35969 ft | 461 kts | 272° |
| 2026-05-08 05:51 | 56.51148 | 51.16707 | 35948 ft | 461 kts | 272° |
| 2026-05-08 05:52 | 56.51341 | 51.05158 | 35967 ft | 462 kts | 272° |
| 2026-05-08 05:52 | 56.51527 | 50.93485 | 35958 ft | 462 kts | 272° |
| 2026-05-08 05:53 | 56.51700 | 50.81900 | 35950 ft | 462 kts | 272° |
| 2026-05-08 05:53 | 56.51864 | 50.70220 | 35951 ft | 463 kts | 272° |
| 2026-05-08 05:54 | 56.52015 | 50.58605 | 35949 ft | 463 kts | 272° |
| 2026-05-08 05:54 | 56.52156 | 50.46973 | 35941 ft | 463 kts | 272° |
| 2026-05-08 05:55 | 56.52288 | 50.35271 | 35941 ft | 463 kts | 272° |
| 2026-05-08 05:55 | 56.52406 | 50.23682 | 35942 ft | 462 kts | 272° |
| 2026-05-08 05:56 | 56.52515 | 50.11988 | 35933 ft | 462 kts | 272° |
| 2026-05-08 05:56 | 56.52612 | 50.00421 | 35934 ft | 461 kts | 271° |
| 2026-05-08 05:57 | 56.52699 | 49.88776 | 35927 ft | 461 kts | 271° |
| 2026-05-08 05:57 | 56.52775 | 49.77170 | 35935 ft | 460 kts | 271° |
| 2026-05-08 05:58 | 56.52840 | 49.65616 | 35933 ft | 460 kts | 271° |
| 2026-05-08 05:58 | 56.52894 | 49.53994 | 35919 ft | 459 kts | 271° |
| 2026-05-08 05:59 | 56.52937 | 49.42469 | 35918 ft | 459 kts | 271° |
| 2026-05-08 05:59 | 56.52970 | 49.30884 | 35925 ft | 459 kts | 271° |
| 2026-05-08 06:00 | 56.52991 | 49.19348 | 35912 ft | 459 kts | 271° |
| 2026-05-08 06:00 | 56.53002 | 49.07766 | 35916 ft | 459 kts | 271° |
| 2026-05-08 06:01 | 56.53002 | 48.96255 | 35912 ft | 459 kts | 271° |
| 2026-05-08 06:01 | 56.52992 | 48.84727 | 35906 ft | 459 kts | 270° |
| 2026-05-08 06:02 | 56.52971 | 48.73165 | 35921 ft | 459 kts | 270° |
| 2026-05-08 06:02 | 56.52939 | 48.61584 | 35903 ft | 458 kts | 270° |
| 2026-05-08 06:03 | 56.52897 | 48.50104 | 35918 ft | 458 kts | 270° |
| 2026-05-08 06:03 | 56.52843 | 48.38525 | 35902 ft | 457 kts | 270° |
| 2026-05-08 06:04 | 56.52780 | 48.27045 | 35903 ft | 457 kts | 270° |
| 2026-05-08 06:04 | 56.52705 | 48.15596 | 35913 ft | 456 kts | 270° |
| 2026-05-08 06:05 | 56.52620 | 48.04055 | 35913 ft | 456 kts | 270° |
| 2026-05-08 06:05 | 56.52525 | 47.92610 | 35908 ft | 456 kts | 270° |
| 2026-05-08 06:06 | 56.52420 | 47.81146 | 35907 ft | 456 kts | 270° |
| 2026-05-08 06:06 | 56.52323 | 47.71566 | 35905 ft | 456 kts | 269° |
| 2026-05-08 06:07 | 56.52198 | 47.60070 | 35910 ft | 456 kts | 269° |
| 2026-05-08 06:07 | 56.52061 | 47.48553 | 35904 ft | 456 kts | 269° |
| 2026-05-08 06:08 | 56.51916 | 47.37141 | 35907 ft | 456 kts | 269° |
| 2026-05-08 06:08 | 56.51758 | 47.25637 | 35902 ft | 455 kts | 269° |
| 2026-05-08 06:09 | 56.51591 | 47.14205 | 35903 ft | 455 kts | 269° |
| 2026-05-08 06:09 | 56.51413 | 47.02718 | 35911 ft | 455 kts | 269° |
| 2026-05-08 06:10 | 56.51225 | 46.91304 | 35898 ft | 455 kts | 269° |
| 2026-05-08 06:10 | 56.51027 | 46.79897 | 35890 ft | 454 kts | 269° |
| 2026-05-08 06:11 | 56.50817 | 46.68448 | 35885 ft | 454 kts | 268° |
| 2026-05-08 06:11 | 56.50598 | 46.57015 | 35883 ft | 454 kts | 268° |
| 2026-05-08 06:12 | 56.50370 | 46.45660 | 35880 ft | 453 kts | 268° |
| 2026-05-08 06:12 | 56.50129 | 46.34209 | 35877 ft | 453 kts | 268° |
| 2026-05-08 06:13 | 56.49880 | 46.22864 | 35876 ft | 453 kts | 268° |
| 2026-05-08 06:13 | 56.49618 | 46.11461 | 35878 ft | 453 kts | 268° |
| 2026-05-08 06:14 | 56.49349 | 46.00123 | 35876 ft | 452 kts | 268° |
| 2026-05-08 06:14 | 56.49067 | 45.88739 | 35888 ft | 452 kts | 267° |
| 2026-05-08 06:15 | 56.48777 | 45.77408 | 35881 ft | 452 kts | 267° |
| 2026-05-08 06:15 | 56.48475 | 45.66021 | 35873 ft | 452 kts | 267° |
| 2026-05-08 06:16 | 56.48165 | 45.54731 | 35882 ft | 452 kts | 267° |
| 2026-05-08 06:16 | 56.47844 | 45.43420 | 35883 ft | 451 kts | 267° |
| 2026-05-08 06:17 | 56.47340 | 45.26378 | 35883 ft | 451 kts | 267° |
| 2026-05-08 06:17 | 56.46995 | 45.15097 | 35879 ft | 451 kts | 266° |
| 2026-05-08 06:18 | 56.46637 | 45.03758 | 35886 ft | 451 kts | 266° |
| 2026-05-08 06:18 | 56.46268 | 44.92412 | 35873 ft | 450 kts | 266° |
| 2026-05-08 06:19 | 56.45892 | 44.81162 | 35872 ft | 450 kts | 266° |
| 2026-05-08 06:19 | 56.45504 | 44.69862 | 35876 ft | 449 kts | 266° |
| 2026-05-08 06:20 | 56.45107 | 44.58592 | 35888 ft | 449 kts | 266° |
| 2026-05-08 06:20 | 56.44702 | 44.47399 | 35886 ft | 448 kts | 266° |
| 2026-05-08 06:21 | 56.44285 | 44.36126 | 35891 ft | 448 kts | 266° |
| 2026-05-08 06:21 | 56.43861 | 44.24960 | 35899 ft | 448 kts | 266° |
| 2026-05-08 06:22 | 56.43423 | 44.13706 | 35886 ft | 447 kts | 266° |
| 2026-05-08 06:22 | 56.42979 | 44.02531 | 35898 ft | 447 kts | 266° |
| 2026-05-08 06:23 | 56.42522 | 43.91312 | 35885 ft | 447 kts | 266° |
| 2026-05-08 06:23 | 56.42056 | 43.80113 | 35896 ft | 446 kts | 265° |
| 2026-05-08 06:24 | 56.41583 | 43.68983 | 35892 ft | 446 kts | 265° |
| 2026-05-08 06:24 | 56.41097 | 43.57808 | 35884 ft | 446 kts | 265° |
| 2026-05-08 06:25 | 56.40601 | 43.46628 | 35902 ft | 446 kts | 265° |
| 2026-05-08 06:25 | 56.40100 | 43.35539 | 35906 ft | 445 kts | 265° |
| 2026-05-08 06:26 | 56.39584 | 43.24365 | 35913 ft | 445 kts | 265° |
| 2026-05-08 06:26 | 56.39062 | 43.13261 | 35913 ft | 445 kts | 265° |
| 2026-05-08 06:27 | 56.38526 | 43.02099 | 35908 ft | 445 kts | 265° |
| 2026-05-08 06:27 | 56.37981 | 42.90946 | 35919 ft | 445 kts | 265° |
| 2026-05-08 06:28 | 56.37430 | 42.79880 | 35907 ft | 445 kts | 265° |
| 2026-05-08 06:28 | 56.36865 | 42.68732 | 35930 ft | 445 kts | 265° |
| 2026-05-08 06:29 | 56.36294 | 42.57661 | 35920 ft | 445 kts | 265° |
| 2026-05-08 06:29 | 56.35709 | 42.46524 | 35926 ft | 445 kts | 264° |
| 2026-05-08 06:30 | 56.35118 | 42.35472 | 35936 ft | 444 kts | 264° |
| 2026-05-08 06:30 | 56.34514 | 42.24349 | 35935 ft | 444 kts | 264° |
| 2026-05-08 06:31 | 56.33904 | 42.13307 | 35929 ft | 444 kts | 264° |
| 2026-05-08 06:31 | 56.33280 | 42.02197 | 35931 ft | 444 kts | 264° |
| 2026-05-08 06:32 | 56.32650 | 41.91158 | 35943 ft | 444 kts | 264° |
| 2026-05-08 06:32 | 56.32006 | 41.80061 | 35944 ft | 444 kts | 264° |
| 2026-05-08 06:33 | 56.31358 | 41.69049 | 35952 ft | 444 kts | 264° |
| 2026-05-08 06:33 | 56.30699 | 41.58027 | 35947 ft | 444 kts | 264° |
| 2026-05-08 06:34 | 56.30090 | 41.46939 | 35953 ft | 443 kts | 267° |
| 2026-05-08 06:34 | 56.29872 | 41.35831 | 35949 ft | 443 kts | 268° |
| 2026-05-08 06:35 | 56.29712 | 41.24775 | 35954 ft | 443 kts | 268° |
| 2026-05-08 06:35 | 56.29520 | 41.13654 | 35963 ft | 443 kts | 268° |
| 2026-05-08 06:36 | 56.29299 | 41.02611 | 35966 ft | 443 kts | 267° |
| 2026-05-08 06:36 | 56.29059 | 40.91524 | 35976 ft | 442 kts | 267° |
| 2026-05-08 06:37 | 56.28811 | 40.80500 | 35966 ft | 442 kts | 267° |
| 2026-05-08 06:37 | 56.28552 | 40.69431 | 35902 ft | 443 kts | 267° |
| 2026-05-08 06:38 | 56.28420 | 40.63916 | 35724 ft | 435 kts | 267° |
| 2026-05-08 06:38 | 56.28288 | 40.58508 | 35319 ft | 429 kts | 267° |
| 2026-05-08 06:38 | 56.28156 | 40.53189 | 34561 ft | 431 kts | 267° |
| 2026-05-08 06:38 | 56.28018 | 40.47777 | 33666 ft | 435 kts | 267° |
| 2026-05-08 06:39 | 56.27877 | 40.42278 | 32639 ft | 440 kts | 267° |
| 2026-05-08 06:39 | 56.27731 | 40.36741 | 31621 ft | 444 kts | 266° |
| 2026-05-08 06:39 | 56.27583 | 40.31164 | 30639 ft | 448 kts | 266° |
| 2026-05-08 06:39 | 56.27431 | 40.25557 | 29802 ft | 448 kts | 266° |
| 2026-05-08 06:40 | 56.27280 | 40.20062 | 29138 ft | 442 kts | 266° |
| 2026-05-08 06:40 | 56.27126 | 40.14558 | 28549 ft | 435 kts | 266° |
| 2026-05-08 06:40 | 56.26972 | 40.09151 | 27943 ft | 430 kts | 266° |
| 2026-05-08 06:40 | 56.26817 | 40.03777 | 27319 ft | 426 kts | 266° |
| 2026-05-08 06:41 | 56.26662 | 39.98482 | 26680 ft | 423 kts | 266° |
| 2026-05-08 06:41 | 56.26505 | 39.93212 | 26060 ft | 419 kts | 266° |
| 2026-05-08 06:41 | 56.26349 | 39.88071 | 25473 ft | 416 kts | 266° |
| 2026-05-08 06:41 | 56.26191 | 39.82885 | 24923 ft | 412 kts | 266° |
| 2026-05-08 06:42 | 56.26031 | 39.77743 | 24371 ft | 409 kts | 266° |
| 2026-05-08 06:42 | 56.25873 | 39.72705 | 23838 ft | 405 kts | 266° |
| 2026-05-08 06:42 | 56.25712 | 39.67648 | 23250 ft | 402 kts | 266° |
| 2026-05-08 06:42 | 56.25551 | 39.62632 | 22621 ft | 399 kts | 266° |
| 2026-05-08 06:43 | 56.25389 | 39.57672 | 22054 ft | 395 kts | 266° |
| 2026-05-08 06:43 | 56.25227 | 39.52754 | 21503 ft | 392 kts | 266° |
| 2026-05-08 06:43 | 56.25066 | 39.47927 | 20958 ft | 388 kts | 266° |
| 2026-05-08 06:43 | 56.24902 | 39.43072 | 20406 ft | 386 kts | 266° |
| 2026-05-08 06:44 | 56.24737 | 39.38260 | 19853 ft | 383 kts | 266° |
| 2026-05-08 06:44 | 56.24572 | 39.33496 | 19336 ft | 380 kts | 266° |
| 2026-05-08 06:44 | 56.24409 | 39.28824 | 18840 ft | 377 kts | 266° |
| 2026-05-08 06:44 | 56.24242 | 39.24129 | 18351 ft | 374 kts | 265° |
| 2026-05-08 06:45 | 56.24075 | 39.19467 | 17805 ft | 372 kts | 265° |
| 2026-05-08 06:45 | 56.23908 | 39.14844 | 17277 ft | 368 kts | 265° |
| 2026-05-08 06:45 | 56.23741 | 39.10266 | 16754 ft | 365 kts | 265° |
| 2026-05-08 06:45 | 56.23574 | 39.05727 | 16232 ft | 362 kts | 265° |
| 2026-05-08 06:46 | 56.23407 | 39.01222 | 15720 ft | 359 kts | 265° |
| 2026-05-08 06:46 | 56.23239 | 38.96769 | 15211 ft | 356 kts | 265° |
| 2026-05-08 06:46 | 56.23073 | 38.92398 | 14724 ft | 354 kts | 265° |
| 2026-05-08 06:46 | 56.22903 | 38.87968 | 14225 ft | 351 kts | 265° |
| 2026-05-08 06:47 | 56.22734 | 38.83588 | 13746 ft | 349 kts | 265° |
| 2026-05-08 06:47 | 56.22567 | 38.79305 | 13209 ft | 347 kts | 265° |
| 2026-05-08 06:47 | 56.22396 | 38.74990 | 12770 ft | 342 kts | 265° |
| 2026-05-08 06:47 | 56.22230 | 38.70806 | 12694 ft | 328 kts | 265° |
| 2026-05-08 06:48 | 56.22071 | 38.66825 | 12286 ft | 317 kts | 265° |
| 2026-05-08 06:48 | 56.21915 | 38.62957 | 11825 ft | 304 kts | 265° |
| 2026-05-08 06:48 | 56.21636 | 38.59276 | 11378 ft | 291 kts | 256° |
| 2026-05-08 06:48 | 56.21059 | 38.55837 | 10967 ft | 285 kts | 252° |
| 2026-05-08 06:49 | 56.20401 | 38.52456 | 10567 ft | 286 kts | 252° |
| 2026-05-08 06:49 | 56.19738 | 38.49137 | 10249 ft | 284 kts | 251° |
| 2026-05-08 06:49 | 56.19069 | 38.45821 | 9965 ft | 280 kts | 251° |
| 2026-05-08 06:49 | 56.18403 | 38.42543 | 9638 ft | 277 kts | 251° |
| 2026-05-08 06:50 | 56.17750 | 38.39343 | 9319 ft | 273 kts | 251° |
| 2026-05-08 06:50 | 56.17108 | 38.36211 | 8970 ft | 261 kts | 251° |
| 2026-05-08 06:50 | 56.16493 | 38.33221 | 8648 ft | 250 kts | 251° |
| 2026-05-08 06:50 | 56.15898 | 38.30325 | 8352 ft | 244 kts | 251° |
| 2026-05-08 06:51 | 56.15310 | 38.27478 | 8068 ft | 245 kts | 251° |
| 2026-05-08 06:51 | 56.14713 | 38.24588 | 7847 ft | 250 kts | 250° |
| 2026-05-08 06:51 | 56.14034 | 38.21680 | 7572 ft | 259 kts | 248° |
| 2026-05-08 06:51 | 56.13287 | 38.18679 | 7300 ft | 267 kts | 248° |
| 2026-05-08 06:52 | 56.12513 | 38.15598 | 6936 ft | 272 kts | 247° |
| 2026-05-08 06:52 | 56.11761 | 38.12616 | 6561 ft | 256 kts | 247° |
| 2026-05-08 06:52 | 56.11043 | 38.09798 | 6236 ft | 240 kts | 247° |
| 2026-05-08 06:52 | 56.10357 | 38.07133 | 5928 ft | 233 kts | 247° |
| 2026-05-08 06:53 | 56.09677 | 38.04500 | 5619 ft | 232 kts | 247° |
| 2026-05-08 06:53 | 56.08999 | 38.01884 | 5301 ft | 229 kts | 247° |
| 2026-05-08 06:53 | 56.08556 | 38.00183 | 5142 ft | 225 kts | 247° |
| 2026-05-08 06:53 | 56.07699 | 37.96905 | 4946 ft | 213 kts | 247° |
| 2026-05-08 06:54 | 56.07080 | 37.94551 | 4733 ft | 205 kts | 247° |
| 2026-05-08 06:54 | 56.06473 | 37.92245 | 4534 ft | 203 kts | 247° |
| 2026-05-08 06:54 | 56.05876 | 37.89985 | 4320 ft | 202 kts | 247° |
| 2026-05-08 06:54 | 56.05266 | 37.87696 | 4116 ft | 203 kts | 247° |
| 2026-05-08 06:55 | 56.04662 | 37.85440 | 3903 ft | 200 kts | 248° |
| 2026-05-08 06:55 | 56.04053 | 37.83206 | 3663 ft | 198 kts | 247° |
| 2026-05-08 06:55 | 56.03457 | 37.81038 | 3481 ft | 196 kts | 247° |
| 2026-05-08 06:55 | 56.03058 | 37.79573 | 3334 ft | 198 kts | 249° |
| 2026-05-08 06:56 | 56.02543 | 37.77277 | 3150 ft | 197 kts | 255° |
| 2026-05-08 06:56 | 56.02014 | 37.74187 | 3082 ft | 198 kts | 258° |
| 2026-05-08 06:56 | 56.01767 | 37.72573 | 3042 ft | 198 kts | 258° |
| 2026-05-08 06:56 | 56.01420 | 37.70263 | 3042 ft | 192 kts | 259° |
| 2026-05-08 06:57 | 56.01080 | 37.67977 | 3029 ft | 187 kts | 259° |
| 2026-05-08 06:57 | 56.00750 | 37.65744 | 3033 ft | 182 kts | 258° |
| 2026-05-08 06:57 | 56.00428 | 37.63578 | 2856 ft | 180 kts | 259° |
| 2026-05-08 06:57 | 56.00112 | 37.61461 | 2642 ft | 172 kts | 259° |
| 2026-05-08 06:58 | 55.99814 | 37.59454 | 2433 ft | 167 kts | 260° |
| 2026-05-08 06:58 | 55.99516 | 37.57454 | 2202 ft | 164 kts | 259° |
| 2026-05-08 06:58 | 55.99224 | 37.55486 | 2009 ft | 163 kts | 259° |
| 2026-05-08 06:58 | 55.98929 | 37.53504 | 1772 ft | 165 kts | 259° |
| 2026-05-08 06:59 | 55.98635 | 37.51535 | 1501 ft | 162 kts | 259° |
| 2026-05-08 06:59 | 55.98354 | 37.49641 | 1289 ft | 156 kts | 259° |
| 2026-05-08 06:59 | 55.98073 | 37.47765 | 1036 ft | 156 kts | 257° |
| 2026-05-08 06:59 | 55.97792 | 37.45897 | 852 ft | 155 kts | 256° |
| 2026-05-08 07:00 | 55.97513 | 37.44013 | 657 ft | 157 kts | 255° |
| 2026-05-08 07:00 | 55.97262 | 37.42305 | 639 ft | 121 kts | 255° |
| 2026-05-08 07:00 | 55.97092 | 37.41168 | 636 ft | 68 kts | 255° |
| 2026-05-08 07:00 | 55.97008 | 37.40658 | 639 ft | 32 kts | 246° |
| 2026-05-08 07:01 | 55.96948 | 37.40475 | 643 ft | 13 kts | 233° |
| 2026-05-08 07:01 | 55.96888 | 37.40353 | 641 ft | 13 kts | 227° |
| 2026-05-08 07:01 | 55.96835 | 37.40258 | 639 ft | 8 kts | 225° |
| 2026-05-08 07:01 | 55.96795 | 37.40185 | 642 ft | 8 kts | 225° |
| 2026-05-08 07:02 | 55.96749 | 37.40122 | 641 ft | 8 kts | 207° |
| 2026-05-08 07:02 | 55.96693 | 37.40121 | 644 ft | 8 kts | 164° |
| 2026-05-08 07:02 | 55.96638 | 37.40149 | 639 ft | 8 kts | 164° |
| 2026-05-08 07:02 | 55.96581 | 37.40176 | 644 ft | 8 kts | 165° |
| 2026-05-08 07:03 | 55.96524 | 37.40203 | 637 ft | 8 kts | 165° |
| 2026-05-08 07:03 | 55.96466 | 37.40230 | 636 ft | 8 kts | 165° |
| 2026-05-08 07:03 | 55.96410 | 37.40258 | 635 ft | 8 kts | 161° |
| 2026-05-08 07:03 | 55.96396 | 37.40349 | 640 ft | 9 kts | 77° |
| 2026-05-08 07:04 | 55.96407 | 37.40422 | 638 ft | 0 kts | 75° |